sensor_id;sensor_type;location;lat;lon;timestamp;pressure;altitude;pressure_sealevel;temperature;humidity
16190;BME280;41754;51.498;7.540;2023-07-31T00:01:17;99868.50;;;15.11;96.41
16190;BME280;41754;51.498;7.540;2023-07-31T00:03:46;99874.53;;;15.13;95.80
16190;BME280;41754;51.498;7.540;2023-07-31T00:06:14;99875.50;;;15.12;95.90
16190;BME280;41754;51.498;7.540;2023-07-31T00:08:42;99876.88;;;15.16;95.89
16190;BME280;41754;51.498;7.540;2023-07-31T00:11:10;99866.28;;;15.16;95.64
16190;BME280;41754;51.498;7.540;2023-07-31T00:13:38;99866.88;;;15.20;95.70
16190;BME280;41754;51.498;7.540;2023-07-31T00:16:06;99860.69;;;15.19;95.33
16190;BME280;41754;51.498;7.540;2023-07-31T00:18:34;99859.19;;;15.17;95.55
16190;BME280;41754;51.498;7.540;2023-07-31T00:21:03;99856.69;;;15.15;95.60
16190;BME280;41754;51.498;7.540;2023-07-31T00:23:30;99856.53;;;15.17;95.69
16190;BME280;41754;51.498;7.540;2023-07-31T00:25:58;99857.63;;;15.14;95.73
16190;BME280;41754;51.498;7.540;2023-07-31T00:28:26;99855.69;;;15.16;96.04
16190;BME280;41754;51.498;7.540;2023-07-31T00:30:55;99848.72;;;15.15;96.02
16190;BME280;41754;51.498;7.540;2023-07-31T00:33:26;99849.81;;;15.13;96.27
16190;BME280;41754;51.498;7.540;2023-07-31T00:35:55;99857.91;;;15.11;96.67
16190;BME280;41754;51.498;7.540;2023-07-31T00:38:26;99845.94;;;15.07;96.50
16190;BME280;41754;51.498;7.540;2023-07-31T00:40:54;99847.31;;;15.11;96.63
16190;BME280;41754;51.498;7.540;2023-07-31T00:43:22;99854.31;;;15.12;96.69
16190;BME280;41754;51.498;7.540;2023-07-31T00:45:50;99852.34;;;15.14;96.26
16190;BME280;41754;51.498;7.540;2023-07-31T00:48:18;99843.44;;;15.15;96.24
16190;BME280;41754;51.498;7.540;2023-07-31T00:50:46;99855.13;;;15.13;96.16
16190;BME280;41754;51.498;7.540;2023-07-31T00:53:14;99859.88;;;15.09;96.44
16190;BME280;41754;51.498;7.540;2023-07-31T00:55:44;99851.09;;;15.09;96.59
16190;BME280;41754;51.498;7.540;2023-07-31T00:58:12;99843.97;;;15.09;96.88
16190;BME280;41754;51.498;7.540;2023-07-31T01:00:40;99849.00;;;15.12;96.62
16190;BME280;41754;51.498;7.540;2023-07-31T01:03:08;99847.31;;;15.11;96.54
16190;BME280;41754;51.498;7.540;2023-07-31T01:05:43;99850.69;;;15.13;96.84
16190;BME280;41754;51.498;7.540;2023-07-31T01:08:18;99844.81;;;15.10;96.55
16190;BME280;41754;51.498;7.540;2023-07-31T01:10:54;99843.00;;;15.10;97.26
16190;BME280;41754;51.498;7.540;2023-07-31T01:13:23;99845.38;;;15.13;96.56
16190;BME280;41754;51.498;7.540;2023-07-31T01:15:51;99836.44;;;15.14;96.25
16190;BME280;41754;51.498;7.540;2023-07-31T01:18:20;99837.13;;;15.16;96.11
16190;BME280;41754;51.498;7.540;2023-07-31T01:20:54;99839.78;;;15.16;95.45
16190;BME280;41754;51.498;7.540;2023-07-31T01:23:51;99849.81;;;15.23;94.86
16190;BME280;41754;51.498;7.540;2023-07-31T01:26:30;99850.78;;;15.21;94.76
16190;BME280;41754;51.498;7.540;2023-07-31T01:29:03;99833.66;;;15.26;94.26
16190;BME280;41754;51.498;7.540;2023-07-31T01:31:35;99840.06;;;15.23;93.93
16190;BME280;41754;51.498;7.540;2023-07-31T01:34:04;99843.56;;;15.24;93.80
16190;BME280;41754;51.498;7.540;2023-07-31T01:36:33;99840.63;;;15.27;93.19
16190;BME280;41754;51.498;7.540;2023-07-31T01:39:02;99840.91;;;15.24;93.62
16190;BME280;41754;51.498;7.540;2023-07-31T01:41:31;99833.94;;;15.23;93.97
16190;BME280;41754;51.498;7.540;2023-07-31T01:43:59;99848.72;;;15.25;93.32
16190;BME280;41754;51.498;7.540;2023-07-31T01:46:27;99851.78;;;15.30;92.36
16190;BME280;41754;51.498;7.540;2023-07-31T01:48:55;99850.38;;;15.26;92.72
16190;BME280;41754;51.498;7.540;2023-07-31T01:51:23;99846.22;;;15.24;93.13
16190;BME280;41754;51.498;7.540;2023-07-31T01:53:51;99844.25;;;15.26;92.82
16190;BME280;41754;51.498;7.540;2023-07-31T01:56:19;99845.75;;;15.28;92.41
16190;BME280;41754;51.498;7.540;2023-07-31T01:58:48;99835.34;;;15.27;92.15
16190;BME280;41754;51.498;7.540;2023-07-31T02:01:16;99837.97;;;15.27;92.11
16190;BME280;41754;51.498;7.540;2023-07-31T02:03:44;99841.03;;;15.32;91.84
16190;BME280;41754;51.498;7.540;2023-07-31T02:06:14;99834.75;;;15.33;91.59
16190;BME280;41754;51.498;7.540;2023-07-31T02:08:42;99850.09;;;15.29;91.39
16190;BME280;41754;51.498;7.540;2023-07-31T02:11:12;99836.72;;;15.31;91.37
16190;BME280;41754;51.498;7.540;2023-07-31T02:13:40;99843.41;;;15.25;91.78
16190;BME280;41754;51.498;7.540;2023-07-31T02:16:09;99829.59;;;15.31;91.00
16190;BME280;41754;51.498;7.540;2023-07-31T02:18:37;99836.44;;;15.34;90.77
16190;BME280;41754;51.498;7.540;2023-07-31T02:21:05;99831.25;;;15.32;90.47
16190;BME280;41754;51.498;7.540;2023-07-31T02:23:33;99832.22;;;15.31;90.66
16190;BME280;41754;51.498;7.540;2023-07-31T02:26:00;99832.78;;;15.35;90.12
16190;BME280;41754;51.498;7.540;2023-07-31T02:28:28;99826.66;;;15.34;89.92
16190;BME280;41754;51.498;7.540;2023-07-31T02:30:57;99830.00;;;15.36;89.05
16190;BME280;41754;51.498;7.540;2023-07-31T02:33:26;99825.00;;;15.33;89.45
16190;BME280;41754;51.498;7.540;2023-07-31T02:35:54;99818.84;;;15.33;89.35
16190;BME280;41754;51.498;7.540;2023-07-31T02:38:22;99823.03;;;15.35;88.92
16190;BME280;41754;51.498;7.540;2023-07-31T02:40:50;99826.66;;;15.34;88.73
16190;BME280;41754;51.498;7.540;2023-07-31T02:43:18;99820.94;;;15.29;88.95
16190;BME280;41754;51.498;7.540;2023-07-31T02:45:48;99823.31;;;15.32;88.58
16190;BME280;41754;51.498;7.540;2023-07-31T02:48:18;99817.88;;;15.34;88.50
16190;BME280;41754;51.498;7.540;2023-07-31T02:50:48;99822.19;;;15.35;88.39
16190;BME280;41754;51.498;7.540;2023-07-31T02:53:16;99818.56;;;15.36;88.61
16190;BME280;41754;51.498;7.540;2023-07-31T02:55:44;99825.81;;;15.34;88.41
16190;BME280;41754;51.498;7.540;2023-07-31T02:58:11;99820.38;;;15.35;88.30
16190;BME280;41754;51.498;7.540;2023-07-31T03:00:42;99821.91;;;15.38;87.66
16190;BME280;41754;51.498;7.540;2023-07-31T03:03:09;99817.00;;;15.43;86.69
16190;BME280;41754;51.498;7.540;2023-07-31T03:05:38;99812.97;;;15.39;87.21
16190;BME280;41754;51.498;7.540;2023-07-31T03:08:07;99816.47;;;15.39;87.77
16190;BME280;41754;51.498;7.540;2023-07-31T03:10:35;99805.31;;;15.36;87.66
16190;BME280;41754;51.498;7.540;2023-07-31T03:13:04;99806.53;;;15.42;87.01
16190;BME280;41754;51.498;7.540;2023-07-31T03:15:32;99805.16;;;15.37;86.63
16190;BME280;41754;51.498;7.540;2023-07-31T03:18:00;99794.84;;;15.34;87.17
16190;BME280;41754;51.498;7.540;2023-07-31T03:20:28;99802.53;;;15.37;86.89
16190;BME280;41754;51.498;7.540;2023-07-31T03:22:55;99809.38;;;15.40;86.28
16190;BME280;41754;51.498;7.540;2023-07-31T03:25:25;99802.38;;;15.39;86.88
16190;BME280;41754;51.498;7.540;2023-07-31T03:27:52;99804.06;;;15.40;86.60
16190;BME280;41754;51.498;7.540;2023-07-31T03:30:20;99797.63;;;15.43;86.06
16190;BME280;41754;51.498;7.540;2023-07-31T03:32:48;99803.19;;;15.39;85.98
16190;BME280;41754;51.498;7.540;2023-07-31T03:35:16;99808.47;;;15.49;84.98
16190;BME280;41754;51.498;7.540;2023-07-31T03:37:44;99811.13;;;15.49;84.94
16190;BME280;41754;51.498;7.540;2023-07-31T03:40:12;99799.56;;;15.50;84.96
16190;BME280;41754;51.498;7.540;2023-07-31T03:42:41;99793.13;;;15.53;84.58
16190;BME280;41754;51.498;7.540;2023-07-31T03:45:09;99802.91;;;15.52;84.56
16190;BME280;41754;51.498;7.540;2023-07-31T03:47:37;99805.13;;;15.57;84.13
16190;BME280;41754;51.498;7.540;2023-07-31T03:50:06;99801.47;;;15.58;84.19
16190;BME280;41754;51.498;7.540;2023-07-31T03:52:34;99788.06;;;15.59;84.48
16190;BME280;41754;51.498;7.540;2023-07-31T03:55:02;99801.44;;;15.68;83.45
16190;BME280;41754;51.498;7.540;2023-07-31T03:57:30;99797.13;;;15.67;83.61
16190;BME280;41754;51.498;7.540;2023-07-31T04:00:00;99804.25;;;15.66;83.91
16190;BME280;41754;51.498;7.540;2023-07-31T04:02:37;99797.13;;;15.67;83.94
16190;BME280;41754;51.498;7.540;2023-07-31T04:05:05;99797.28;;;15.65;84.10
16190;BME280;41754;51.498;7.540;2023-07-31T04:07:34;99790.28;;;15.74;83.37
16190;BME280;41754;51.498;7.540;2023-07-31T04:10:01;99795.47;;;15.75;83.73
16190;BME280;41754;51.498;7.540;2023-07-31T04:12:30;99785.94;;;15.83;82.70
16190;BME280;41754;51.498;7.540;2023-07-31T04:14:57;99790.81;;;15.87;82.29
16190;BME280;41754;51.498;7.540;2023-07-31T04:17:27;99794.41;;;15.86;82.68
16190;BME280;41754;51.498;7.540;2023-07-31T04:19:55;99804.75;;;15.89;82.58
16190;BME280;41754;51.498;7.540;2023-07-31T04:22:23;99787.41;;;15.95;82.08
16190;BME280;41754;51.498;7.540;2023-07-31T04:24:50;99789.06;;;15.96;82.55
16190;BME280;41754;51.498;7.540;2023-07-31T04:27:18;99788.50;;;16.02;81.60
16190;BME280;41754;51.498;7.540;2023-07-31T04:29:46;99773.13;;;16.06;81.56
16190;BME280;41754;51.498;7.540;2023-07-31T04:32:14;99782.28;;;16.11;81.29
16190;BME280;41754;51.498;7.540;2023-07-31T04:34:44;99789.41;;;16.11;81.47
16190;BME280;41754;51.498;7.540;2023-07-31T04:37:12;99792.59;;;16.14;81.78
16190;BME280;41754;51.498;7.540;2023-07-31T04:39:40;99780.56;;;16.20;81.51
16190;BME280;41754;51.498;7.540;2023-07-31T04:42:08;99781.41;;;16.21;81.10
16190;BME280;41754;51.498;7.540;2023-07-31T04:44:36;99788.50;;;16.20;81.26
16190;BME280;41754;51.498;7.540;2023-07-31T04:47:03;99780.84;;;16.17;81.65
16190;BME280;41754;51.498;7.540;2023-07-31T04:49:31;99774.72;;;16.17;82.06
16190;BME280;41754;51.498;7.540;2023-07-31T04:52:00;99781.41;;;16.21;81.77
16190;BME280;41754;51.498;7.540;2023-07-31T04:54:28;99768.38;;;16.27;81.24
16190;BME280;41754;51.498;7.540;2023-07-31T04:56:56;99772.97;;;16.25;81.15
16190;BME280;41754;51.498;7.540;2023-07-31T04:59:24;99765.72;;;16.27;81.55
16190;BME280;41754;51.498;7.540;2023-07-31T05:01:52;99775.47;;;16.27;81.31
16190;BME280;41754;51.498;7.540;2023-07-31T05:04:19;99770.69;;;16.30;81.44
16190;BME280;41754;51.498;7.540;2023-07-31T05:06:47;99776.34;;;16.27;81.72
16190;BME280;41754;51.498;7.540;2023-07-31T05:09:17;99774.94;;;16.23;82.12
16190;BME280;41754;51.498;7.540;2023-07-31T05:11:45;99779.97;;;16.26;81.81
16190;BME280;41754;51.498;7.540;2023-07-31T05:14:13;99761.00;;;16.21;82.29
16190;BME280;41754;51.498;7.540;2023-07-31T05:16:42;99761.69;;;16.23;82.15
16190;BME280;41754;51.498;7.540;2023-07-31T05:19:10;99758.78;;;16.17;83.01
16190;BME280;41754;51.498;7.540;2023-07-31T05:21:38;99769.56;;;16.15;83.81
16190;BME280;41754;51.498;7.540;2023-07-31T05:24:06;99760.91;;;16.13;83.58
16190;BME280;41754;51.498;7.540;2023-07-31T05:26:35;99759.94;;;16.14;84.19
16190;BME280;41754;51.498;7.540;2023-07-31T05:29:04;99748.69;;;16.20;83.93
16190;BME280;41754;51.498;7.540;2023-07-31T05:31:32;99744.09;;;16.22;83.87
16190;BME280;41754;51.498;7.540;2023-07-31T05:34:00;99751.59;;;16.27;83.37
16190;BME280;41754;51.498;7.540;2023-07-31T05:36:29;99748.63;;;16.30;83.75
16190;BME280;41754;51.498;7.540;2023-07-31T05:38:57;99751.16;;;16.31;83.42
16190;BME280;41754;51.498;7.540;2023-07-31T05:41:25;99741.59;;;16.39;83.63
16190;BME280;41754;51.498;7.540;2023-07-31T05:43:54;99730.81;;;16.40;83.49
16190;BME280;41754;51.498;7.540;2023-07-31T05:46:22;99731.34;;;16.44;82.99
16190;BME280;41754;51.498;7.540;2023-07-31T05:48:50;99736.22;;;16.48;83.31
16190;BME280;41754;51.498;7.540;2023-07-31T05:51:18;99734.00;;;16.44;83.51
16190;BME280;41754;51.498;7.540;2023-07-31T05:53:45;99727.25;;;16.49;83.35
16190;BME280;41754;51.498;7.540;2023-07-31T05:56:13;99728.63;;;16.54;82.92
16190;BME280;41754;51.498;7.540;2023-07-31T05:58:41;99720.50;;;16.55;82.78
16190;BME280;41754;51.498;7.540;2023-07-31T06:01:10;99722.19;;;16.56;82.80
16190;BME280;41754;51.498;7.540;2023-07-31T06:03:38;99722.78;;;16.50;83.67
16190;BME280;41754;51.498;7.540;2023-07-31T06:06:06;99716.88;;;16.38;84.25
16190;BME280;41754;51.498;7.540;2023-07-31T06:08:34;99708.75;;;16.22;86.15
16190;BME280;41754;51.498;7.540;2023-07-31T06:11:02;99719.13;;;16.15;87.10
16190;BME280;41754;51.498;7.540;2023-07-31T06:13:30;99718.06;;;16.08;87.98
16190;BME280;41754;51.498;7.540;2023-07-31T06:15:58;99717.25;;;16.07;87.84
16190;BME280;41754;51.498;7.540;2023-07-31T06:18:28;99709.13;;;16.09;88.00
16190;BME280;41754;51.498;7.540;2023-07-31T06:20:56;99701.63;;;16.04;87.99
16190;BME280;41754;51.498;7.540;2023-07-31T06:23:23;99697.50;;;16.10;88.04
16190;BME280;41754;51.498;7.540;2023-07-31T06:25:51;99701.19;;;16.09;87.81
16190;BME280;41754;51.498;7.540;2023-07-31T06:28:19;99701.47;;;16.24;87.00
16190;BME280;41754;51.498;7.540;2023-07-31T06:30:47;99696.72;;;16.27;86.43
16190;BME280;41754;51.498;7.540;2023-07-31T06:33:15;99692.44;;;16.35;86.25
16190;BME280;41754;51.498;7.540;2023-07-31T06:35:44;99696.16;;;16.42;85.48
16190;BME280;41754;51.498;7.540;2023-07-31T06:38:12;99690.69;;;16.43;85.20
16190;BME280;41754;51.498;7.540;2023-07-31T06:40:40;99688.88;;;16.44;85.40
16190;BME280;41754;51.498;7.540;2023-07-31T06:43:08;99701.25;;;16.53;84.07
16190;BME280;41754;51.498;7.540;2023-07-31T06:45:36;99698.66;;;16.61;83.61
16190;BME280;41754;51.498;7.540;2023-07-31T06:48:04;99695.00;;;16.62;83.79
16190;BME280;41754;51.498;7.540;2023-07-31T06:50:32;99694.00;;;16.63;83.04
16190;BME280;41754;51.498;7.540;2023-07-31T06:53:02;99701.69;;;16.66;83.22
16190;BME280;41754;51.498;7.540;2023-07-31T06:55:30;99692.28;;;16.54;83.69
16190;BME280;41754;51.498;7.540;2023-07-31T06:57:58;99697.53;;;16.46;84.64
16190;BME280;41754;51.498;7.540;2023-07-31T07:00:26;99685.59;;;16.50;84.71
16190;BME280;41754;51.498;7.540;2023-07-31T07:02:55;99692.44;;;16.53;85.02
16190;BME280;41754;51.498;7.540;2023-07-31T07:05:23;99691.66;;;16.60;85.13
16190;BME280;41754;51.498;7.540;2023-07-31T07:07:51;99683.31;;;16.55;84.86
16190;BME280;41754;51.498;7.540;2023-07-31T07:10:20;99695.31;;;16.59;85.61
16190;BME280;41754;51.498;7.540;2023-07-31T07:12:48;99698.44;;;16.55;85.21
16190;BME280;41754;51.498;7.540;2023-07-31T07:15:16;99692.28;;;16.54;85.24
16190;BME280;41754;51.498;7.540;2023-07-31T07:17:44;99687.81;;;16.55;85.05
16190;BME280;41754;51.498;7.540;2023-07-31T07:20:12;99695.09;;;16.53;84.57
16190;BME280;41754;51.498;7.540;2023-07-31T07:22:40;99688.63;;;16.55;84.85
16190;BME280;41754;51.498;7.540;2023-07-31T07:25:09;99692.59;;;16.51;84.44
16190;BME280;41754;51.498;7.540;2023-07-31T07:27:38;99686.28;;;16.52;84.45
16190;BME280;41754;51.498;7.540;2023-07-31T07:30:07;99695.56;;;16.48;84.86
16190;BME280;41754;51.498;7.540;2023-07-31T07:32:35;99698.22;;;16.48;85.03
16190;BME280;41754;51.498;7.540;2023-07-31T07:35:04;99699.59;;;16.34;85.82
16190;BME280;41754;51.498;7.540;2023-07-31T07:37:31;99701.47;;;16.24;86.62
16190;BME280;41754;51.498;7.540;2023-07-31T07:40:00;99691.16;;;16.21;87.19
16190;BME280;41754;51.498;7.540;2023-07-31T07:42:28;99689.03;;;16.24;87.56
16190;BME280;41754;51.498;7.540;2023-07-31T07:44:57;99688.63;;;16.37;87.22
16190;BME280;41754;51.498;7.540;2023-07-31T07:47:25;99688.63;;;16.37;87.17
16190;BME280;41754;51.498;7.540;2023-07-31T07:49:55;99684.34;;;16.36;87.26
16190;BME280;41754;51.498;7.540;2023-07-31T07:52:22;99678.50;;;16.32;88.27
16190;BME280;41754;51.498;7.540;2023-07-31T07:54:50;99679.25;;;16.43;87.93
16190;BME280;41754;51.498;7.540;2023-07-31T07:57:18;99676.22;;;16.38;87.51
16190;BME280;41754;51.498;7.540;2023-07-31T07:59:46;99677.88;;;16.39;87.05
16190;BME280;41754;51.498;7.540;2023-07-31T08:02:15;99680.44;;;16.30;87.66
16190;BME280;41754;51.498;7.540;2023-07-31T08:04:43;99689.72;;;16.26;88.64
16190;BME280;41754;51.498;7.540;2023-07-31T08:07:11;99686.53;;;16.23;89.15
16190;BME280;41754;51.498;7.540;2023-07-31T08:09:39;99681.38;;;16.21;88.95
16190;BME280;41754;51.498;7.540;2023-07-31T08:12:08;99682.44;;;16.28;89.55
16190;BME280;41754;51.498;7.540;2023-07-31T08:14:36;99677.75;;;16.22;89.35
16190;BME280;41754;51.498;7.540;2023-07-31T08:17:04;99672.81;;;16.27;89.56
16190;BME280;41754;51.498;7.540;2023-07-31T08:19:33;99667.19;;;16.30;89.02
16190;BME280;41754;51.498;7.540;2023-07-31T08:22:01;99660.59;;;16.35;89.02
16190;BME280;41754;51.498;7.540;2023-07-31T08:24:29;99658.63;;;16.37;87.86
16190;BME280;41754;51.498;7.540;2023-07-31T08:26:56;99664.94;;;16.36;88.91
16190;BME280;41754;51.498;7.540;2023-07-31T08:29:24;99665.16;;;16.24;88.28
16190;BME280;41754;51.498;7.540;2023-07-31T08:31:52;99668.31;;;16.10;89.20
16190;BME280;41754;51.498;7.540;2023-07-31T08:34:21;99667.94;;;16.05;90.18
16190;BME280;41754;51.498;7.540;2023-07-31T08:36:50;99663.31;;;16.07;90.52
16190;BME280;41754;51.498;7.540;2023-07-31T08:39:18;99657.19;;;16.06;90.10
16190;BME280;41754;51.498;7.540;2023-07-31T08:41:46;99657.78;;;16.18;90.61
16190;BME280;41754;51.498;7.540;2023-07-31T08:44:15;99665.97;;;16.25;90.51
16190;BME280;41754;51.498;7.540;2023-07-31T08:46:45;99658.41;;;16.30;90.12
16190;BME280;41754;51.498;7.540;2023-07-31T08:49:13;99649.53;;;16.21;89.70
16190;BME280;41754;51.498;7.540;2023-07-31T08:51:42;99649.22;;;16.24;90.78
16190;BME280;41754;51.498;7.540;2023-07-31T08:54:12;99649.00;;;16.36;90.41
16190;BME280;41754;51.498;7.540;2023-07-31T08:56:40;99644.50;;;16.54;90.87
16190;BME280;41754;51.498;7.540;2023-07-31T08:59:08;99651.66;;;16.62;90.16
16190;BME280;41754;51.498;7.540;2023-07-31T09:01:41;99657.34;;;16.67;89.54
16190;BME280;41754;51.498;7.540;2023-07-31T09:04:12;99659.69;;;16.70;88.89
16190;BME280;41754;51.498;7.540;2023-07-31T09:06:42;99660.00;;;16.67;88.09
16190;BME280;41754;51.498;7.540;2023-07-31T09:09:12;99645.84;;;16.58;88.53
16190;BME280;41754;51.498;7.540;2023-07-31T09:11:40;99658.31;;;16.40;88.74
16190;BME280;41754;51.498;7.540;2023-07-31T09:14:08;99661.19;;;16.28;89.55
16190;BME280;41754;51.498;7.540;2023-07-31T09:16:51;99655.00;;;16.20;90.82
16190;BME280;41754;51.498;7.540;2023-07-31T09:19:28;99656.88;;;16.09;91.04
16190;BME280;41754;51.498;7.540;2023-07-31T09:22:28;99650.34;;;16.22;92.05
16190;BME280;41754;51.498;7.540;2023-07-31T09:25:15;99655.88;;;16.28;91.01
16190;BME280;41754;51.498;7.540;2023-07-31T09:27:48;99651.97;;;16.32;90.41
16190;BME280;41754;51.498;7.540;2023-07-31T09:30:17;99653.88;;;16.22;90.20
16190;BME280;41754;51.498;7.540;2023-07-31T09:32:46;99646.28;;;16.09;89.61
16190;BME280;41754;51.498;7.540;2023-07-31T09:35:22;99654.00;;;16.03;90.51
16190;BME280;41754;51.498;7.540;2023-07-31T09:37:51;99657.41;;;16.13;91.87
16190;BME280;41754;51.498;7.540;2023-07-31T09:40:28;99650.59;;;16.28;91.63
16190;BME280;41754;51.498;7.540;2023-07-31T09:42:57;99637.53;;;16.17;91.06
16190;BME280;41754;51.498;7.540;2023-07-31T09:45:25;99645.91;;;16.22;91.48
16190;BME280;41754;51.498;7.540;2023-07-31T09:48:08;99644.38;;;16.20;91.98
16190;BME280;41754;51.498;7.540;2023-07-31T09:50:37;99644.06;;;16.05;91.36
16190;BME280;41754;51.498;7.540;2023-07-31T09:53:06;99645.13;;;16.12;92.36
16190;BME280;41754;51.498;7.540;2023-07-31T09:55:36;99633.47;;;16.05;92.07
16190;BME280;41754;51.498;7.540;2023-07-31T09:58:05;99628.97;;;16.05;92.02
16190;BME280;41754;51.498;7.540;2023-07-31T10:00:33;99631.41;;;16.17;92.42
16190;BME280;41754;51.498;7.540;2023-07-31T10:03:04;99632.53;;;16.32;91.39
16190;BME280;41754;51.498;7.540;2023-07-31T10:05:35;99632.66;;;16.30;91.50
16190;BME280;41754;51.498;7.540;2023-07-31T10:08:03;99627.06;;;16.33;91.07
16190;BME280;41754;51.498;7.540;2023-07-31T10:10:36;99632.44;;;16.42;91.48
16190;BME280;41754;51.498;7.540;2023-07-31T10:13:04;99633.44;;;16.41;90.46
16190;BME280;41754;51.498;7.540;2023-07-31T10:15:33;99629.41;;;16.37;90.23
16190;BME280;41754;51.498;7.540;2023-07-31T10:18:02;99628.81;;;16.43;90.82
16190;BME280;41754;51.498;7.540;2023-07-31T10:20:30;99628.44;;;16.38;90.50
16190;BME280;41754;51.498;7.540;2023-07-31T10:22:58;99614.72;;;16.42;90.51
16190;BME280;41754;51.498;7.540;2023-07-31T10:25:27;99619.69;;;16.45;90.30
16190;BME280;41754;51.498;7.540;2023-07-31T10:27:57;99624.38;;;16.51;90.34
16190;BME280;41754;51.498;7.540;2023-07-31T10:30:28;99628.66;;;16.70;89.98
16190;BME280;41754;51.498;7.540;2023-07-31T10:32:57;99619.41;;;16.75;89.44
16190;BME280;41754;51.498;7.540;2023-07-31T10:35:27;99609.91;;;16.72;89.69
16190;BME280;41754;51.498;7.540;2023-07-31T10:37:55;99620.00;;;16.68;89.82
16190;BME280;41754;51.498;7.540;2023-07-31T10:40:25;99616.31;;;16.61;90.39
16190;BME280;41754;51.498;7.540;2023-07-31T10:42:54;99616.69;;;16.66;91.19
16190;BME280;41754;51.498;7.540;2023-07-31T10:45:31;99615.31;;;16.62;91.48
16190;BME280;41754;51.498;7.540;2023-07-31T10:48:00;99622.66;;;16.68;90.53
16190;BME280;41754;51.498;7.540;2023-07-31T10:50:29;99619.13;;;16.60;90.71
16190;BME280;41754;51.498;7.540;2023-07-31T10:52:59;99623.56;;;16.51;91.01
16190;BME280;41754;51.498;7.540;2023-07-31T10:55:30;99615.22;;;16.46;91.40
16190;BME280;41754;51.498;7.540;2023-07-31T10:58:06;99617.09;;;16.54;92.50
16190;BME280;41754;51.498;7.540;2023-07-31T11:00:38;99618.75;;;16.55;91.76
16190;BME280;41754;51.498;7.540;2023-07-31T11:03:07;99605.22;;;16.40;91.97
16190;BME280;41754;51.498;7.540;2023-07-31T11:05:47;99611.44;;;16.30;92.10
16190;BME280;41754;51.498;7.540;2023-07-31T11:08:17;99623.94;;;16.38;91.77
16190;BME280;41754;51.498;7.540;2023-07-31T11:10:48;99618.50;;;16.40;92.26
16190;BME280;41754;51.498;7.540;2023-07-31T11:13:16;99608.84;;;16.39;92.05
16190;BME280;41754;51.498;7.540;2023-07-31T11:15:45;99617.81;;;16.38;92.42
16190;BME280;41754;51.498;7.540;2023-07-31T11:18:13;99617.81;;;16.38;92.62
16190;BME280;41754;51.498;7.540;2023-07-31T11:20:43;99618.13;;;16.35;92.06
16190;BME280;41754;51.498;7.540;2023-07-31T11:23:11;99620.31;;;16.39;92.09
16190;BME280;41754;51.498;7.540;2023-07-31T11:25:40;99619.47;;;16.39;92.31
16190;BME280;41754;51.498;7.540;2023-07-31T11:28:09;99623.13;;;16.38;92.72
16190;BME280;41754;51.498;7.540;2023-07-31T11:30:38;99630.09;;;16.39;92.20
16190;BME280;41754;51.498;7.540;2023-07-31T11:33:09;99621.75;;;16.33;91.86
16190;BME280;41754;51.498;7.540;2023-07-31T11:35:41;99620.16;;;16.41;92.30
16190;BME280;41754;51.498;7.540;2023-07-31T11:38:11;99615.97;;;16.56;91.52
16190;BME280;41754;51.498;7.540;2023-07-31T11:40:42;99614.94;;;16.49;91.32
16190;BME280;41754;51.498;7.540;2023-07-31T11:43:10;99607.25;;;16.46;91.83
16190;BME280;41754;51.498;7.540;2023-07-31T11:45:45;99603.97;;;16.52;91.18
16190;BME280;41754;51.498;7.540;2023-07-31T11:48:23;99604.53;;;16.64;91.25
16190;BME280;41754;51.498;7.540;2023-07-31T11:50:54;99591.63;;;16.69;90.03
16190;BME280;41754;51.498;7.540;2023-07-31T11:53:26;99589.66;;;16.71;89.70
16190;BME280;41754;51.498;7.540;2023-07-31T11:55:57;99597.53;;;16.81;88.86
16190;BME280;41754;51.498;7.540;2023-07-31T11:58:26;99586.13;;;16.88;88.82
16190;BME280;41754;51.498;7.540;2023-07-31T12:00:55;99589.28;;;16.92;88.46
16190;BME280;41754;51.498;7.540;2023-07-31T12:03:25;99581.84;;;16.96;88.63
16190;BME280;41754;51.498;7.540;2023-07-31T12:05:54;99575.72;;;17.03;87.52
16190;BME280;41754;51.498;7.540;2023-07-31T12:08:23;99588.44;;;17.18;87.30
16190;BME280;41754;51.498;7.540;2023-07-31T12:10:52;99586.81;;;17.33;87.20
16190;BME280;41754;51.498;7.540;2023-07-31T12:13:21;99593.50;;;17.54;85.36
16190;BME280;41754;51.498;7.540;2023-07-31T12:15:54;99590.00;;;17.45;84.91
16190;BME280;41754;51.498;7.540;2023-07-31T12:18:26;99590.47;;;17.40;85.44
16190;BME280;41754;51.498;7.540;2023-07-31T12:20:55;99590.50;;;17.49;85.33
16190;BME280;41754;51.498;7.540;2023-07-31T12:23:26;99583.56;;;17.64;85.75
16190;BME280;41754;51.498;7.540;2023-07-31T12:26:02;99586.47;;;17.87;85.07
16190;BME280;41754;51.498;7.540;2023-07-31T12:28:34;99576.00;;;18.10;84.30
16190;BME280;41754;51.498;7.540;2023-07-31T12:31:03;99572.31;;;18.20;83.21
16190;BME280;41754;51.498;7.540;2023-07-31T12:33:34;99578.00;;;18.00;82.82
16190;BME280;41754;51.498;7.540;2023-07-31T12:36:06;99576.00;;;18.02;83.35
16190;BME280;41754;51.498;7.540;2023-07-31T12:38:34;99580.97;;;17.89;82.64
16190;BME280;41754;51.498;7.540;2023-07-31T12:41:02;99577.31;;;17.90;84.22
16190;BME280;41754;51.498;7.540;2023-07-31T12:43:30;99574.31;;;17.93;82.96
16190;BME280;41754;51.498;7.540;2023-07-31T12:45:58;99577.44;;;17.80;83.20
16190;BME280;41754;51.498;7.540;2023-07-31T12:48:26;99573.28;;;17.77;83.67
16190;BME280;41754;51.498;7.540;2023-07-31T12:50:56;99567.13;;;17.77;83.97
16190;BME280;41754;51.498;7.540;2023-07-31T12:53:24;99561.31;;;17.73;84.40
16190;BME280;41754;51.498;7.540;2023-07-31T12:55:52;99570.00;;;17.92;84.31
16190;BME280;41754;51.498;7.540;2023-07-31T12:58:19;99571.44;;;17.70;84.93
16190;BME280;41754;51.498;7.540;2023-07-31T13:00:47;99576.06;;;17.59;86.02
16190;BME280;41754;51.498;7.540;2023-07-31T13:03:15;99571.56;;;17.43;86.20
16190;BME280;41754;51.498;7.540;2023-07-31T13:05:43;99572.19;;;17.37;86.81
16190;BME280;41754;51.498;7.540;2023-07-31T13:08:12;99566.19;;;17.27;87.56
16190;BME280;41754;51.498;7.540;2023-07-31T13:10:42;99558.84;;;17.21;88.37